sensor_id;sensor_type;location;lat;lon;timestamp;temperature;humidity
27707;DHT22;36332;51.384;0.040;2023-03-01T00:01:23;3.90;99.90
27707;DHT22;36332;51.384;0.040;2023-03-01T00:03:51;3.90;99.90
27707;DHT22;36332;51.384;0.040;2023-03-01T00:06:20;3.90;99.90
27707;DHT22;36332;51.384;0.040;2023-03-01T00:08:48;3.90;99.90
27707;DHT22;36332;51.384;0.040;2023-03-01T00:11:22;3.90;99.90
27707;DHT22;36332;51.384;0.040;2023-03-01T00:13:53;3.90;99.90
27707;DHT22;36332;51.384;0.040;2023-03-01T00:16:26;3.90;99.90
27707;DHT22;36332;51.384;0.040;2023-03-01T00:18:55;3.80;99.90
27707;DHT22;36332;51.384;0.040;2023-03-01T00:21:23;3.90;99.90
27707;DHT22;36332;51.384;0.040;2023-03-01T00:23:52;3.90;99.90
27707;DHT22;36332;51.384;0.040;2023-03-01T00:26:21;3.90;99.90
27707;DHT22;36332;51.384;0.040;2023-03-01T00:28:49;3.90;99.90
27707;DHT22;36332;51.384;0.040;2023-03-01T00:31:20;3.90;99.90
27707;DHT22;36332;51.384;0.040;2023-03-01T00:33:48;3.90;99.90
27707;DHT22;36332;51.384;0.040;2023-03-01T00:36:16;3.90;99.90
27707;DHT22;36332;51.384;0.040;2023-03-01T00:38:45;3.90;99.90
27707;DHT22;36332;51.384;0.040;2023-03-01T00:41:16;3.90;99.90
27707;DHT22;36332;51.384;0.040;2023-03-01T00:43:44;4.00;99.90
27707;DHT22;36332;51.384;0.040;2023-03-01T00:46:15;4.00;99.90
27707;DHT22;36332;51.384;0.040;2023-03-01T00:48:44;4.00;99.90
27707;DHT22;36332;51.384;0.040;2023-03-01T00:51:21;4.10;99.90
27707;DHT22;36332;51.384;0.040;2023-03-01T00:53:52;4.10;99.90
27707;DHT22;36332;51.384;0.040;2023-03-01T00:56:20;4.10;99.90
27707;DHT22;36332;51.384;0.040;2023-03-01T00:58:48;4.10;99.90
27707;DHT22;36332;51.384;0.040;2023-03-01T01:01:22;4.10;99.90
27707;DHT22;36332;51.384;0.040;2023-03-01T01:03:53;4.10;99.90
27707;DHT22;36332;51.384;0.040;2023-03-01T01:06:22;4.20;99.90
27707;DHT22;36332;51.384;0.040;2023-03-01T01:08:51;4.20;99.90
27707;DHT22;36332;51.384;0.040;2023-03-01T01:11:22;4.20;99.90
27707;DHT22;36332;51.384;0.040;2023-03-01T01:13:51;4.20;99.90
27707;DHT22;36332;51.384;0.040;2023-03-01T01:16:20;4.20;99.90
27707;DHT22;36332;51.384;0.040;2023-03-01T01:18:49;4.30;99.90
27707;DHT22;36332;51.384;0.040;2023-03-01T01:21:21;4.30;99.90
27707;DHT22;36332;51.384;0.040;2023-03-01T01:23:50;4.30;99.90
27707;DHT22;36332;51.384;0.040;2023-03-01T01:26:24;4.30;99.90
27707;DHT22;36332;51.384;0.040;2023-03-01T01:28:53;4.30;99.90
27707;DHT22;36332;51.384;0.040;2023-03-01T01:31:22;4.30;99.90
27707;DHT22;36332;51.384;0.040;2023-03-01T01:33:54;4.30;99.90
27707;DHT22;36332;51.384;0.040;2023-03-01T01:36:22;5.10;99.90
27707;DHT22;36332;51.384;0.040;2023-03-01T01:38:50;4.30;99.90
27707;DHT22;36332;51.384;0.040;2023-03-01T01:41:19;4.30;99.90
27707;DHT22;36332;51.384;0.040;2023-03-01T01:44:08;4.30;99.90
27707;DHT22;36332;51.384;0.040;2023-03-01T01:46:39;4.30;99.90
27707;DHT22;36332;51.384;0.040;2023-03-01T01:49:26;4.30;99.90
27707;DHT22;36332;51.384;0.040;2023-03-01T01:52:04;4.30;99.90
27707;DHT22;36332;51.384;0.040;2023-03-01T01:54:55;4.30;99.90
27707;DHT22;36332;51.384;0.040;2023-03-01T01:57:33;4.30;99.90
27707;DHT22;36332;51.384;0.040;2023-03-01T02:00:06;4.30;99.90
27707;DHT22;36332;51.384;0.040;2023-03-01T02:02:40;4.20;99.90
27707;DHT22;36332;51.384;0.040;2023-03-01T02:05:26;4.20;99.90
27707;DHT22;36332;51.384;0.040;2023-03-01T02:07:58;4.20;99.90
27707;DHT22;36332;51.384;0.040;2023-03-01T02:10:27;4.20;99.90
27707;DHT22;36332;51.384;0.040;2023-03-01T02:12:56;4.20;99.90
27707;DHT22;36332;51.384;0.040;2023-03-01T02:15:24;4.20;99.90
27707;DHT22;36332;51.384;0.040;2023-03-01T02:17:54;4.30;99.90
27707;DHT22;36332;51.384;0.040;2023-03-01T02:20:44;4.30;99.90
27707;DHT22;36332;51.384;0.040;2023-03-01T02:23:15;4.30;99.90
27707;DHT22;36332;51.384;0.040;2023-03-01T02:28:31;4.30;99.90
27707;DHT22;36332;51.384;0.040;2023-03-01T02:30:59;4.30;99.90
27707;DHT22;36332;51.384;0.040;2023-03-01T02:33:47;4.20;99.90
27707;DHT22;36332;51.384;0.040;2023-03-01T02:36:19;4.20;99.90
27707;DHT22;36332;51.384;0.040;2023-03-01T02:38:50;4.20;99.90
27707;DHT22;36332;51.384;0.040;2023-03-01T02:41:20;4.20;99.90
27707;DHT22;36332;51.384;0.040;2023-03-01T02:43:48;4.20;99.90
27707;DHT22;36332;51.384;0.040;2023-03-01T02:46:19;4.20;99.90
27707;DHT22;36332;51.384;0.040;2023-03-01T02:48:55;4.20;99.90
27707;DHT22;36332;51.384;0.040;2023-03-01T02:51:31;4.20;99.90
27707;DHT22;36332;51.384;0.040;2023-03-01T02:54:28;4.30;99.90
27707;DHT22;36332;51.384;0.040;2023-03-01T02:56:57;4.30;99.90
27707;DHT22;36332;51.384;0.040;2023-03-01T02:59:32;4.30;99.90
27707;DHT22;36332;51.384;0.040;2023-03-01T03:02:02;4.30;99.90
27707;DHT22;36332;51.384;0.040;2023-03-01T03:04:30;4.30;99.90
27707;DHT22;36332;51.384;0.040;2023-03-01T03:06:58;4.30;99.90
27707;DHT22;36332;51.384;0.040;2023-03-01T03:09:26;4.40;99.90
27707;DHT22;36332;51.384;0.040;2023-03-01T03:11:53;4.30;99.90
27707;DHT22;36332;51.384;0.040;2023-03-01T03:14:22;4.40;99.90
27707;DHT22;36332;51.384;0.040;2023-03-01T03:16:51;4.40;99.90
27707;DHT22;36332;51.384;0.040;2023-03-01T03:19:19;4.50;99.90
27707;DHT22;36332;51.384;0.040;2023-03-01T03:21:47;4.50;99.90
27707;DHT22;36332;51.384;0.040;2023-03-01T03:24:14;4.50;99.90
27707;DHT22;36332;51.384;0.040;2023-03-01T03:26:42;4.50;99.90
27707;DHT22;36332;51.384;0.040;2023-03-01T03:29:10;4.50;99.90
27707;DHT22;36332;51.384;0.040;2023-03-01T03:31:37;4.60;99.90
27707;DHT22;36332;51.384;0.040;2023-03-01T03:34:05;4.60;99.90
27707;DHT22;36332;51.384;0.040;2023-03-01T03:36:33;4.60;99.90
27707;DHT22;36332;51.384;0.040;2023-03-01T03:39:01;4.60;99.90
27707;DHT22;36332;51.384;0.040;2023-03-01T03:41:28;4.70;99.90
27707;DHT22;36332;51.384;0.040;2023-03-01T03:43:56;4.70;99.90
27707;DHT22;36332;51.384;0.040;2023-03-01T03:46:23;4.70;99.90
27707;DHT22;36332;51.384;0.040;2023-03-01T03:48:51;4.70;99.90
27707;DHT22;36332;51.384;0.040;2023-03-01T03:51:18;4.80;99.90
27707;DHT22;36332;51.384;0.040;2023-03-01T03:53:46;4.80;99.90
27707;DHT22;36332;51.384;0.040;2023-03-01T03:56:13;4.80;99.90
27707;DHT22;36332;51.384;0.040;2023-03-01T03:58:41;4.90;99.90
27707;DHT22;36332;51.384;0.040;2023-03-01T04:01:09;4.80;99.90
27707;DHT22;36332;51.384;0.040;2023-03-01T04:03:37;4.80;99.90
27707;DHT22;36332;51.384;0.040;2023-03-01T04:06:05;4.90;99.90
27707;DHT22;36332;51.384;0.040;2023-03-01T04:08:33;4.90;99.90
27707;DHT22;36332;51.384;0.040;2023-03-01T04:11:01;4.90;99.90
27707;DHT22;36332;51.384;0.040;2023-03-01T04:13:48;4.90;99.90
27707;DHT22;36332;51.384;0.040;2023-03-01T04:16:16;5.00;99.90
27707;DHT22;36332;51.384;0.040;2023-03-01T04:18:45;5.00;99.90
27707;DHT22;36332;51.384;0.040;2023-03-01T04:21:13;5.00;99.90
27707;DHT22;36332;51.384;0.040;2023-03-01T04:23:42;5.00;99.90
27707;DHT22;36332;51.384;0.040;2023-03-01T04:26:09;5.00;99.90
27707;DHT22;36332;51.384;0.040;2023-03-01T04:28:39;5.00;99.90
27707;DHT22;36332;51.384;0.040;2023-03-01T04:31:10;5.00;99.90
27707;DHT22;36332;51.384;0.040;2023-03-01T04:33:42;5.10;99.90
27707;DHT22;36332;51.384;0.040;2023-03-01T04:36:12;5.00;99.90
27707;DHT22;36332;51.384;0.040;2023-03-01T04:38:40;5.00;99.90
27707;DHT22;36332;51.384;0.040;2023-03-01T04:41:09;5.00;99.90
27707;DHT22;36332;51.384;0.040;2023-03-01T04:43:38;5.00;99.90
27707;DHT22;36332;51.384;0.040;2023-03-01T04:46:08;5.00;99.90
27707;DHT22;36332;51.384;0.040;2023-03-01T04:48:37;5.00;99.90
27707;DHT22;36332;51.384;0.040;2023-03-01T04:51:06;5.00;99.90
27707;DHT22;36332;51.384;0.040;2023-03-01T04:53:33;5.10;99.90
27707;DHT22;36332;51.384;0.040;2023-03-01T04:56:03;5.00;99.90
27707;DHT22;36332;51.384;0.040;2023-03-01T04:58:32;5.10;99.90
27707;DHT22;36332;51.384;0.040;2023-03-01T05:00:59;5.10;99.90
27707;DHT22;36332;51.384;0.040;2023-03-01T05:03:27;5.10;99.90
27707;DHT22;36332;51.384;0.040;2023-03-01T05:05:58;5.10;99.90
27707;DHT22;36332;51.384;0.040;2023-03-01T05:08:26;5.10;99.90
27707;DHT22;36332;51.384;0.040;2023-03-01T05:10:54;5.10;99.90
27707;DHT22;36332;51.384;0.040;2023-03-01T05:13:22;5.10;99.90
27707;DHT22;36332;51.384;0.040;2023-03-01T05:15:57;5.10;99.90
27707;DHT22;36332;51.384;0.040;2023-03-01T05:18:26;5.10;99.90
27707;DHT22;36332;51.384;0.040;2023-03-01T05:21:00;5.10;99.90
27707;DHT22;36332;51.384;0.040;2023-03-01T05:23:28;5.10;99.90
27707;DHT22;36332;51.384;0.040;2023-03-01T05:26:04;5.10;99.90
27707;DHT22;36332;51.384;0.040;2023-03-01T05:28:34;5.10;99.90
27707;DHT22;36332;51.384;0.040;2023-03-01T05:31:02;5.10;99.90
27707;DHT22;36332;51.384;0.040;2023-03-01T05:33:29;5.10;99.90
27707;DHT22;36332;51.384;0.040;2023-03-01T05:36:00;5.10;99.90
27707;DHT22;36332;51.384;0.040;2023-03-01T05:38:28;5.10;99.90
27707;DHT22;36332;51.384;0.040;2023-03-01T05:40:55;5.10;99.90
27707;DHT22;36332;51.384;0.040;2023-03-01T05:43:23;5.10;99.90
27707;DHT22;36332;51.384;0.040;2023-03-01T05:45:52;5.10;99.90
27707;DHT22;36332;51.384;0.040;2023-03-01T05:48:20;5.10;99.90
27707;DHT22;36332;51.384;0.040;2023-03-01T05:50:48;5.10;99.90
27707;DHT22;36332;51.384;0.040;2023-03-01T05:53:19;5.10;99.90
27707;DHT22;36332;51.384;0.040;2023-03-01T05:55:48;5.10;99.90
27707;DHT22;36332;51.384;0.040;2023-03-01T05:58:19;5.10;99.90
27707;DHT22;36332;51.384;0.040;2023-03-01T06:00:48;5.10;99.90
27707;DHT22;36332;51.384;0.040;2023-03-01T06:03:17;5.10;99.90
27707;DHT22;36332;51.384;0.040;2023-03-01T06:05:45;5.10;99.90
27707;DHT22;36332;51.384;0.040;2023-03-01T06:08:13;5.10;99.90
27707;DHT22;36332;51.384;0.040;2023-03-01T06:10:41;5.10;99.90
27707;DHT22;36332;51.384;0.040;2023-03-01T06:13:09;5.10;99.90
27707;DHT22;36332;51.384;0.040;2023-03-01T06:15:37;5.10;99.90
27707;DHT22;36332;51.384;0.040;2023-03-01T06:18:04;5.10;99.90
27707;DHT22;36332;51.384;0.040;2023-03-01T06:20:32;5.10;99.90
27707;DHT22;36332;51.384;0.040;2023-03-01T06:23:00;5.00;99.90
27707;DHT22;36332;51.384;0.040;2023-03-01T06:25:28;5.00;99.90
27707;DHT22;36332;51.384;0.040;2023-03-01T06:27:56;5.00;99.90
27707;DHT22;36332;51.384;0.040;2023-03-01T06:30:26;5.00;99.90
27707;DHT22;36332;51.384;0.040;2023-03-01T06:32:54;5.00;99.90
27707;DHT22;36332;51.384;0.040;2023-03-01T06:35:29;5.00;99.90
27707;DHT22;36332;51.384;0.040;2023-03-01T06:38:00;5.00;99.90
27707;DHT22;36332;51.384;0.040;2023-03-01T06:40:28;5.00;99.90
27707;DHT22;36332;51.384;0.040;2023-03-01T06:42:57;4.90;99.90
27707;DHT22;36332;51.384;0.040;2023-03-01T06:45:25;4.90;99.90
27707;DHT22;36332;51.384;0.040;2023-03-01T06:48:01;5.00;99.90
27707;DHT22;36332;51.384;0.040;2023-03-01T06:50:29;5.00;99.90
27707;DHT22;36332;51.384;0.040;2023-03-01T06:52:58;4.90;99.90
27707;DHT22;36332;51.384;0.040;2023-03-01T06:55:26;5.00;99.90
27707;DHT22;36332;51.384;0.040;2023-03-01T06:57:56;5.00;99.90
27707;DHT22;36332;51.384;0.040;2023-03-01T07:00:24;5.00;99.90
27707;DHT22;36332;51.384;0.040;2023-03-01T07:02:52;5.00;99.90
27707;DHT22;36332;51.384;0.040;2023-03-01T07:05:20;5.10;99.90
27707;DHT22;36332;51.384;0.040;2023-03-01T07:07:47;5.00;99.90
27707;DHT22;36332;51.384;0.040;2023-03-01T07:10:15;5.10;99.90
27707;DHT22;36332;51.384;0.040;2023-03-01T07:12:43;5.10;99.90
27707;DHT22;36332;51.384;0.040;2023-03-01T07:15:10;5.10;99.90
27707;DHT22;36332;51.384;0.040;2023-03-01T07:17:38;5.20;99.90
27707;DHT22;36332;51.384;0.040;2023-03-01T07:20:06;5.20;99.90
27707;DHT22;36332;51.384;0.040;2023-03-01T07:22:33;5.20;99.90
27707;DHT22;36332;51.384;0.040;2023-03-01T07:25:01;5.20;99.90
27707;DHT22;36332;51.384;0.040;2023-03-01T07:27:28;5.20;99.90
27707;DHT22;36332;51.384;0.040;2023-03-01T07:29:56;5.20;99.90
27707;DHT22;36332;51.384;0.040;2023-03-01T07:32:23;5.20;99.90
27707;DHT22;36332;51.384;0.040;2023-03-01T07:34:51;5.20;99.90
27707;DHT22;36332;51.384;0.040;2023-03-01T07:37:19;5.30;99.90
27707;DHT22;36332;51.384;0.040;2023-03-01T07:39:47;5.30;99.90
27707;DHT22;36332;51.384;0.040;2023-03-01T07:42:14;5.30;99.90
27707;DHT22;36332;51.384;0.040;2023-03-01T07:44:42;5.30;99.90
27707;DHT22;36332;51.384;0.040;2023-03-01T07:47:09;5.30;99.90
27707;DHT22;36332;51.384;0.040;2023-03-01T07:49:37;5.30;99.90
27707;DHT22;36332;51.384;0.040;2023-03-01T07:52:04;5.30;99.90
27707;DHT22;36332;51.384;0.040;2023-03-01T07:54:32;5.40;99.90
27707;DHT22;36332;51.384;0.040;2023-03-01T07:56:59;5.40;99.90
27707;DHT22;36332;51.384;0.040;2023-03-01T07:59:27;5.40;99.90
27707;DHT22;36332;51.384;0.040;2023-03-01T08:01:56;5.40;99.90
27707;DHT22;36332;51.384;0.040;2023-03-01T08:04:24;5.50;99.90
27707;DHT22;36332;51.384;0.040;2023-03-01T08:06:54;5.50;99.90
27707;DHT22;36332;51.384;0.040;2023-03-01T08:09:22;5.50;99.90
27707;DHT22;36332;51.384;0.040;2023-03-01T08:11:49;5.60;99.90
27707;DHT22;36332;51.384;0.040;2023-03-01T08:14:17;5.60;99.90
27707;DHT22;36332;51.384;0.040;2023-03-01T08:16:45;5.70;99.90
27707;DHT22;36332;51.384;0.040;2023-03-01T08:19:12;5.70;99.90
27707;DHT22;36332;51.384;0.040;2023-03-01T08:21:40;5.80;99.90
27707;DHT22;36332;51.384;0.040;2023-03-01T08:24:07;5.80;99.90
27707;DHT22;36332;51.384;0.040;2023-03-01T08:26:37;5.80;99.90
27707;DHT22;36332;51.384;0.040;2023-03-01T08:29:04;5.90;99.90
27707;DHT22;36332;51.384;0.040;2023-03-01T08:31:37;5.80;99.90
27707;DHT22;36332;51.384;0.040;2023-03-01T08:34:08;5.90;99.90
27707;DHT22;36332;51.384;0.040;2023-03-01T08:36:42;6.10;99.90
27707;DHT22;36332;51.384;0.040;2023-03-01T08:39:12;6.00;99.90
27707;DHT22;36332;51.384;0.040;2023-03-01T08:41:40;6.20;99.90
27707;DHT22;36332;51.384;0.040;2023-03-01T08:44:10;6.30;99.90
27707;DHT22;36332;51.384;0.040;2023-03-01T08:46:40;6.40;99.90
27707;DHT22;36332;51.384;0.040;2023-03-01T08:49:16;6.50;99.90
27707;DHT22;36332;51.384;0.040;2023-03-01T08:51:45;6.60;99.90
27707;DHT22;36332;51.384;0.040;2023-03-01T08:54:15;6.80;99.90
27707;DHT22;36332;51.384;0.040;2023-03-01T08:56:44;7.10;99.90
27707;DHT22;36332;51.384;0.040;2023-03-01T08:59:13;7.30;99.90
27707;DHT22;36332;51.384;0.040;2023-03-01T09:01:41;7.50;99.90
27707;DHT22;36332;51.384;0.040;2023-03-01T09:04:11;7.60;99.90
27707;DHT22;36332;51.384;0.040;2023-03-01T09:06:39;7.70;99.90
27707;DHT22;36332;51.384;0.040;2023-03-01T09:09:16;7.80;99.90
27707;DHT22;36332;51.384;0.040;2023-03-01T09:11:45;8.00;99.90
27707;DHT22;36332;51.384;0.040;2023-03-01T09:14:14;8.00;99.90
27707;DHT22;36332;51.384;0.040;2023-03-01T09:16:41;8.10;99.90
27707;DHT22;36332;51.384;0.040;2023-03-01T09:19:09;8.20;99.90
27707;DHT22;36332;51.384;0.040;2023-03-01T09:21:37;8.20;99.90
27707;DHT22;36332;51.384;0.040;2023-03-01T09:24:14;8.30;99.90
27707;DHT22;36332;51.384;0.040;2023-03-01T09:26:42;8.40;99.90
27707;DHT22;36332;51.384;0.040;2023-03-01T09:29:10;8.50;99.90
27707;DHT22;36332;51.384;0.040;2023-03-01T09:31:38;8.60;99.90
27707;DHT22;36332;51.384;0.040;2023-03-01T09:34:06;8.60;99.90
27707;DHT22;36332;51.384;0.040;2023-03-01T09:36:34;8.60;99.90
27707;DHT22;36332;51.384;0.040;2023-03-01T09:39:02;8.70;99.90
27707;DHT22;36332;51.384;0.040;2023-03-01T09:42:03;8.70;99.90
27707;DHT22;36332;51.384;0.040;2023-03-01T09:44:40;8.90;99.90
27707;DHT22;36332;51.384;0.040;2023-03-01T09:47:17;8.90;99.90
27707;DHT22;36332;51.384;0.040;2023-03-01T09:55:13;9.30;99.90
27707;DHT22;36332;51.384;0.040;2023-03-01T10:03:10;9.50;99.90
27707;DHT22;36332;51.384;0.040;2023-03-01T10:10:51;9.30;99.90
27707;DHT22;36332;51.384;0.040;2023-03-01T10:13:34;9.10;99.90
27707;DHT22;36332;51.384;0.040;2023-03-01T10:16:18;9.10;99.90
27707;DHT22;36332;51.384;0.040;2023-03-01T10:18:59;9.10;99.90
27707;DHT22;36332;51.384;0.040;2023-03-01T10:21:28;9.10;99.90
27707;DHT22;36332;51.384;0.040;2023-03-01T10:24:11;9.10;99.90
27707;DHT22;36332;51.384;0.040;2023-03-01T10:27:00;9.20;99.90
27707;DHT22;36332;51.384;0.040;2023-03-01T10:32:31;9.30;99.90
27707;DHT22;36332;51.384;0.040;2023-03-01T10:34:58;9.30;99.90
27707;DHT22;36332;51.384;0.040;2023-03-01T10:37:26;9.30;99.90
27707;DHT22;36332;51.384;0.040;2023-03-01T10:40:07;9.30;99.90
27707;DHT22;36332;51.384;0.040;2023-03-01T10:42:39;9.30;99.90
27707;DHT22;36332;51.384;0.040;2023-03-01T10:47:46;9.30;99.90
27707;DHT22;36332;51.384;0.040;2023-03-01T10:50:21;9.30;99.90
27707;DHT22;36332;51.384;0.040;2023-03-01T10:52:59;9.40;99.90
27707;DHT22;36332;51.384;0.040;2023-03-01T10:58:21;9.60;99.90
27707;DHT22;36332;51.384;0.040;2023-03-01T11:00:55;9.60;99.90
27707;DHT22;36332;51.384;0.040;2023-03-01T11:05:54;9.60;99.90
27707;DHT22;36332;51.384;0.040;2023-03-01T11:08:37;9.40;99.90
27707;DHT22;36332;51.384;0.040;2023-03-01T11:11:33;9.10;99.90
27707;DHT22;36332;51.384;0.040;2023-03-01T11:14:20;9.10;99.90
27707;DHT22;36332;51.384;0.040;2023-03-01T11:17:10;9.00;99.90
27707;DHT22;36332;51.384;0.040;2023-03-01T11:19:39;9.00;99.90
27707;DHT22;36332;51.384;0.040;2023-03-01T11:22:12;9.00;99.90
27707;DHT22;36332;51.384;0.040;2023-03-01T11:27:32;9.00;99.90
27707;DHT22;36332;51.384;0.040;2023-03-01T11:30:06;9.00;99.90
27707;DHT22;36332;51.384;0.040;2023-03-01T11:32:53;8.80;99.90
27707;DHT22;36332;51.384;0.040;2023-03-01T11:35:27;8.80;99.90
27707;DHT22;36332;51.384;0.040;2023-03-01T11:43:36;8.60;99.90
27707;DHT22;36332;51.384;0.040;2023-03-01T11:54:46;8.50;99.90
27707;DHT22;36332;51.384;0.040;2023-03-01T11:58:20;8.50;99.90
27707;DHT22;36332;51.384;0.040;2023-03-01T12:06:35;8.40;99.90
27707;DHT22;36332;51.384;0.040;2023-03-01T12:19:43;8.30;99.90
27707;DHT22;36332;51.384;0.040;2023-03-01T12:39:04;8.10;99.90
27707;DHT22;36332;51.384;0.040;2023-03-01T12:44:58;8.00;99.90
27707;DHT22;36332;51.384;0.040;2023-03-01T12:50:34;8.00;99.90
27707;DHT22;36332;51.384;0.040;2023-03-01T12:53:04;8.00;99.90
27707;DHT22;36332;51.384;0.040;2023-03-01T12:55:38;8.00;99.90
27707;DHT22;36332;51.384;0.040;2023-03-01T13:01:03;8.20;99.90
27707;DHT22;36332;51.384;0.040;2023-03-01T13:03:43;8.90;99.90
27707;DHT22;36332;51.384;0.040;2023-03-01T13:06:40;8.20;99.90
27707;DHT22;36332;51.384;0.040;2023-03-01T13:09:19;8.20;99.90
27707;DHT22;36332;51.384;0.040;2023-03-01T13:11:50;8.20;99.90
27707;DHT22;36332;51.384;0.040;2023-03-01T13:16:50;8.20;99.90
27707;DHT22;36332;51.384;0.040;2023-03-01T13:19:20;8.10;99.90
27707;DHT22;36332;51.384;0.040;2023-03-01T13:21:50;8.10;99.90
27707;DHT22;36332;51.384;0.040;2023-03-01T13:24:40;8.10;99.90
27707;DHT22;36332;51.384;0.040;2023-03-01T13:29:50;8.10;99.90
27707;DHT22;36332;51.384;0.040;2023-03-01T13:32:23;8.10;99.90
27707;DHT22;36332;51.384;0.040;2023-03-01T13:37:44;8.20;99.90
27707;DHT22;36332;51.384;0.040;2023-03-01T13:42:52;8.30;99.90
27707;DHT22;36332;51.384;0.040;2023-03-01T13:45:39;8.40;99.90
27707;DHT22;36332;51.384;0.040;2023-03-01T13:48:16;8.50;99.90
27707;DHT22;36332;51.384;0.040;2023-03-01T13:50:55;8.50;99.90
27707;DHT22;36332;51.384;0.040;2023-03-01T13:53:27;8.50;99.90
27707;DHT22;36332;51.384;0.040;2023-03-01T13:56:01;8.70;99.90
27707;DHT22;36332;51.384;0.040;2023-03-01T13:58:33;8.50;99.90
27707;DHT22;36332;51.384;0.040;2023-03-01T14:01:02;8.50;99.90
27707;DHT22;36332;51.384;0.040;2023-03-01T14:03:32;8.60;99.90
27707;DHT22;36332;51.384;0.040;2023-03-01T14:08:42;8.60;99.90
27707;DHT22;36332;51.384;0.040;2023-03-01T14:19:29;8.80;99.90
27707;DHT22;36332;51.384;0.040;2023-03-01T14:22:25;8.70;99.90
27707;DHT22;36332;51.384;0.040;2023-03-01T14:24:59;8.70;99.90
27707;DHT22;36332;51.384;0.040;2023-03-01T14:27:42;8.80;99.90
27707;DHT22;36332;51.384;0.040;2023-03-01T14:30:21;8.70;99.90
27707;DHT22;36332;51.384;0.040;2023-03-01T14:32:56;8.70;99.90
27707;DHT22;36332;51.384;0.040;2023-03-01T14:35:30;8.60;99.90
27707;DHT22;36332;51.384;0.040;2023-03-01T14:37:58;8.60;99.90
27707;DHT22;36332;51.384;0.040;2023-03-01T14:40:30;8.50;99.90
27707;DHT22;36332;51.384;0.040;2023-03-01T14:43:00;8.40;99.90
27707;DHT22;36332;51.384;0.040;2023-03-01T14:45:29;8.30;99.90
27707;DHT22;36332;51.384;0.040;2023-03-01T14:48:00;8.40;99.90
27707;DHT22;36332;51.384;0.040;2023-03-01T14:50:34;8.20;99.90
27707;DHT22;36332;51.384;0.040;2023-03-01T14:53:04;8.40;99.90
27707;DHT22;36332;51.384;0.040;2023-03-01T14:55:35;8.20;99.90
27707;DHT22;36332;51.384;0.040;2023-03-01T14:58:05;8.30;99.90
27707;DHT22;36332;51.384;0.040;2023-03-01T15:00:34;8.40;99.90
27707;DHT22;36332;51.384;0.040;2023-03-01T15:03:08;8.50;99.90
27707;DHT22;36332;51.384;0.040;2023-03-01T15:05:41;8.60;99.90
27707;DHT22;36332;51.384;0.040;2023-03-01T15:08:28;8.70;99.90
27707;DHT22;36332;51.384;0.040;2023-03-01T15:11:15;8.70;99.90
27707;DHT22;36332;51.384;0.040;2023-03-01T15:13:44;8.60;99.90
27707;DHT22;36332;51.384;0.040;2023-03-01T15:16:16;8.60;99.90
27707;DHT22;36332;51.384;0.040;2023-03-01T15:18:46;8.60;99.90
27707;DHT22;36332;51.384;0.040;2023-03-01T15:21:21;10.00;99.90
27707;DHT22;36332;51.384;0.040;2023-03-01T15:23:53;8.50;99.90
27707;DHT22;36332;51.384;0.040;2023-03-01T15:26:29;8.50;99.90
27707;DHT22;36332;51.384;0.040;2023-03-01T15:28:59;8.60;99.90
27707;DHT22;36332;51.384;0.040;2023-03-01T15:31:33;8.60;99.90
27707;DHT22;36332;51.384;0.040;2023-03-01T15:36:51;8.80;99.90
27707;DHT22;36332;51.384;0.040;2023-03-01T15:39:38;8.80;99.90
27707;DHT22;36332;51.384;0.040;2023-03-01T15:42:07;8.80;99.90
27707;DHT22;36332;51.384;0.040;2023-03-01T15:44:38;8.80;99.90
27707;DHT22;36332;51.384;0.040;2023-03-01T15:47:23;8.80;99.90
27707;DHT22;36332;51.384;0.040;2023-03-01T15:49:53;8.70;99.90
27707;DHT22;36332;51.384;0.040;2023-03-01T15:52:25;8.70;99.90
27707;DHT22;36332;51.384;0.040;2023-03-01T15:55:02;8.70;99.90
27707;DHT22;36332;51.384;0.040;2023-03-01T15:57:30;8.80;99.90
27707;DHT22;36332;51.384;0.040;2023-03-01T15:59:58;8.80;99.90
27707;DHT22;36332;51.384;0.040;2023-03-01T16:02:25;8.80;99.90
27707;DHT22;36332;51.384;0.040;2023-03-01T16:04:53;8.80;99.90
27707;DHT22;36332;51.384;0.040;2023-03-01T16:07:21;8.80;99.90
27707;DHT22;36332;51.384;0.040;2023-03-01T16:09:48;8.70;99.90
27707;DHT22;36332;51.384;0.040;2023-03-01T16:12:16;8.60;99.90
27707;DHT22;36332;51.384;0.040;2023-03-01T16:14:44;8.70;99.90
27707;DHT22;36332;51.384;0.040;2023-03-01T16:17:11;8.70;99.90
27707;DHT22;36332;51.384;0.040;2023-03-01T16:19:39;8.60;99.90
27707;DHT22;36332;51.384;0.040;2023-03-01T16:22:10;8.60;99.90
27707;DHT22;36332;51.384;0.040;2023-03-01T16:24:37;8.60;99.90
27707;DHT22;36332;51.384;0.040;2023-03-01T16:27:05;8.50;99.90
27707;DHT22;36332;51.384;0.040;2023-03-01T16:29:33;8.50;99.90
27707;DHT22;36332;51.384;0.040;2023-03-01T16:32:01;8.50;99.90
27707;DHT22;36332;51.384;0.040;2023-03-01T16:34:30;8.40;99.90
27707;DHT22;36332;51.384;0.040;2023-03-01T16:36:57;8.50;99.90
27707;DHT22;36332;51.384;0.040;2023-03-01T16:39:24;8.40;99.90
27707;DHT22;36332;51.384;0.040;2023-03-01T16:41:52;8.30;99.90
27707;DHT22;36332;51.384;0.040;2023-03-01T16:44:19;8.20;99.90
27707;DHT22;36332;51.384;0.040;2023-03-01T16:46:47;8.10;99.90
27707;DHT22;36332;51.384;0.040;2023-03-01T16:49:15;8.10;99.90
27707;DHT22;36332;51.384;0.040;2023-03-01T16:51:42;8.10;99.90
27707;DHT22;36332;51.384;0.040;2023-03-01T16:54:10;8.10;99.90
27707;DHT22;36332;51.384;0.040;2023-03-01T16:56:38;8.00;99.90
27707;DHT22;36332;51.384;0.040;2023-03-01T16:59:07;8.00;99.90
27707;DHT22;36332;51.384;0.040;2023-03-01T17:01:35;8.00;99.90
27707;DHT22;36332;51.384;0.040;2023-03-01T17:04:11;8.00;99.90
27707;DHT22;36332;51.384;0.040;2023-03-01T17:06:38;7.90;99.90
27707;DHT22;36332;51.384;0.040;2023-03-01T17:09:06;8.00;99.90
27707;DHT22;36332;51.384;0.040;2023-03-01T17:11:35;8.00;99.90
27707;DHT22;36332;51.384;0.040;2023-03-01T17:14:03;7.90;99.90
27707;DHT22;36332;51.384;0.040;2023-03-01T17:16:30;7.90;99.90
27707;DHT22;36332;51.384;0.040;2023-03-01T17:18:58;7.90;99.90
27707;DHT22;36332;51.384;0.040;2023-03-01T17:21:26;7.90;99.90
27707;DHT22;36332;51.384;0.040;2023-03-01T17:23:57;7.90;99.90
27707;DHT22;36332;51.384;0.040;2023-03-01T17:26:25;7.80;99.90
27707;DHT22;36332;51.384;0.040;2023-03-01T17:28:53;7.70;99.90
27707;DHT22;36332;51.384;0.040;2023-03-01T17:31:21;7.70;99.90
27707;DHT22;36332;51.384;0.040;2023-03-01T17:33:49;7.70;99.90
27707;DHT22;36332;51.384;0.040;2023-03-01T17:36:17;7.60;99.90
27707;DHT22;36332;51.384;0.040;2023-03-01T17:38:45;7.60;99.90
27707;DHT22;36332;51.384;0.040;2023-03-01T17:41:13;7.50;99.90
27707;DHT22;36332;51.384;0.040;2023-03-01T17:43:44;7.60;99.90
27707;DHT22;36332;51.384;0.040;2023-03-01T17:46:12;7.50;99.90
27707;DHT22;36332;51.384;0.040;2023-03-01T17:48:40;7.50;99.90
27707;DHT22;36332;51.384;0.040;2023-03-01T17:51:09;7.50;99.90
27707;DHT22;36332;51.384;0.040;2023-03-01T17:53:37;7.80;99.90
27707;DHT22;36332;51.384;0.040;2023-03-01T17:56:05;7.40;99.90
27707;DHT22;36332;51.384;0.040;2023-03-01T17:58:33;7.40;99.90
27707;DHT22;36332;51.384;0.040;2023-03-01T18:01:16;7.40;99.90
27707;DHT22;36332;51.384;0.040;2023-03-01T18:03:45;7.40;99.90